AirNav   Everest Fuels
 
 912 users online  

7MA1 Digital (Box 2) Heliport
Boxborough, Massachusetts, USA

GOING TO BOXBOROUGH?


FAA INFORMATION EFFECTIVE 18 JUNE 2020

Location

FAA Identifier: 7MA1
Lat/Long: 42-29-36.3310N 071-32-37.2360W
42-29.605517N 071-32.620600W
42.4934253,-71.5436767
(estimated)
Elevation: 265 ft. / 81 m (estimated)
Variation: 16W (1990)
From city: 1 mile N of BOXBOROUGH, MA
Time zone: UTC -4 (UTC -5 during Standard Time)
Zip code: 01719

Heliport Operations

Heliport use: Private use. Permission required prior to landing
Activation date: 05/1992
Control tower: no
ARTCC: BOSTON CENTER
FSS: BRIDGEPORT FLIGHT SERVICE STATION
Attendance: UNATNDD
Segmented circle: no

Heliport Communications

WX ASOS at FIT (10 nm W): 135.175 (978-343-9121)
WX ASOS at BED (11 nm E): 124.6 (781-274-9733)
WX AWOS-3PT at ASH (17 nm N): 125.1 (603-578-0473)

Nearby radio navigation aids

VOR radial/distance  VOR name  Freq  Var
GDMr112/23.0GARDNER VOR/DME110.6014W
MHTr214/23.8MANCHESTER VOR/DME114.4015W
LWMr248/24.7LAWRENCE VOR/DME112.5015W
BOSr304/25.9BOSTON VOR/DME112.7016W
PUTr036/34.9PUTNAM VOR/DME117.4014W
EENr133/37.6KEENE VORTAC109.4014W

Heliport Services

Runway Information

Helipad H1

Dimensions: 10 x 10 ft. / 3 x 3 m
Surface: turf
Traffic pattern: leftleft

Heliport Ownership and Management from official FAA records

Ownership: Privately-owned
Owner: DIGITAL EQUIPMENT CORP
HGR 5 BLDG 1730 HANSCOM FIELD
BEDFORD, MA 01730-2613
Phone 508-493-7200
Manager: KEVIN J FARRINGTON
HGR 5 BLDG 1730 HANSCOM FIELD
BEDFORD, MA 01730-2613
Phone 518-493-7200

Additional Remarks

FOR CD CTC BOSTON APCH AT 603-594-5554.

Instrument Procedures

There are no published instrument procedures at 7MA1.

Some nearby airports with instrument procedures:

6B6 - Minute Man Air Field (2 nm SE)
KFIT - Fitchburg Municipal Airport (10 nm W)
KBED - Laurence G Hanscom Field Airport (11 nm E)
KASH - Boire Field Airport (17 nm N)
KORH - Worcester Regional Airport (20 nm SW)
 
Loc | Ops | Rwys | IFR | FBO | Links
Com | Nav | Svcs | Stats | Notes
Area around 7MA1 (Digital (Box 2) Heliport)
 
Road maps at: MapQuest Bing Google
 
Aerial photo
No photo
 
Sectional chart

 
Airport distance calculator
Flying to Digital (Box 2) Heliport? Find the distance to fly.

From to 7MA1

Sunrise and sunset
Times for 05-Jul-2020
 Local
(UTC-4)
 Zulu
(UTC)
Morning civil twilight04:4208:42
Sunrise05:1609:16
Sunset20:2500:25
Evening civil twilight21:0001:00

Current date and time
Zulu (UTC)  05-Jul-2020 14:50:27
Local (UTC-4)  05-Jul-2020 10:50:27
 
METAR
KFIT 
10nm W 
051352Z AUTO VRB03KT 8SM CLR 24/18 A2996 RMK AO2 SLP143 T02440183
KBED 
11nm E 
051404Z 00000KT 10SM BKN015 23/19 A2994 RMK AO2 T02330189
KASH 
16nm N 
051432Z 00000KT 10SM FEW012 23/20 A2996 RMK AO2
KORH 
20nm SW 
051441Z 31006KT 10SM FEW013 23/17 A2998 RMK AO2 T02330172
TAF
KBED 
11nm E 
051428Z 0514/0612 VRB03KT P6SM BKN015 FM051530 19004KT P6SM SCT015 FM051700 20005KT P6SM VCTS BKN050CB FM060300 23003KT P6SM BKN050 FM060800 33003KT 2SM BR SCT250
KORH 
20nm SW 
051120Z 0512/0612 25010KT 4SM BR OVC002 FM051300 24005KT P6SM SCT040 FM051700 24004KT P6SM VCTS BKN040CB FM060200 27003KT P6SM SCT090 FM060800 33003KT P6SM FEW250
NOTAMs
Click for the latest NOTAMs
NOTAMs are issued by the DoD/FAA and will open in a separate window not controlled by AirNav.

 

 
 

Would you like to see your business listed on this page?

 If your business provides an interesting product or service to pilots, flight crews, aircraft, or users of the Digital (Box 2) Heliport, you should consider listing it here.  To start the listing process, click on the button below
 
Add a business
 

Other Pages about Digital (Box 2) Heliport

Update a link
 
Copyright © AirNav, LLC. All rights reserved. Privacy Policy  Contact